sensor_id;sensor_type;location;lat;lon;timestamp;temperature;humidity
29403;DHT22;16382;59.942;30.472;2023-02-28T00:01:11;2.00;99.90
29403;DHT22;16382;59.942;30.472;2023-02-28T00:03:41;2.00;99.90
29403;DHT22;16382;59.942;30.472;2023-02-28T00:06:09;2.00;99.90
29403;DHT22;16382;59.942;30.472;2023-02-28T00:08:37;2.10;99.90
29403;DHT22;16382;59.942;30.472;2023-02-28T00:11:06;2.10;99.90
29403;DHT22;16382;59.942;30.472;2023-02-28T00:13:36;2.10;99.90
29403;DHT22;16382;59.942;30.472;2023-02-28T00:16:06;2.10;99.90
29403;DHT22;16382;59.942;30.472;2023-02-28T00:18:36;2.20;99.90
29403;DHT22;16382;59.942;30.472;2023-02-28T00:21:06;2.20;99.90
29403;DHT22;16382;59.942;30.472;2023-02-28T00:23:34;2.20;99.90
29403;DHT22;16382;59.942;30.472;2023-02-28T00:26:02;2.30;99.90
29403;DHT22;16382;59.942;30.472;2023-02-28T00:28:30;2.30;99.90
29403;DHT22;16382;59.942;30.472;2023-02-28T00:30:58;2.30;99.90
29403;DHT22;16382;59.942;30.472;2023-02-28T00:33:26;2.30;99.90
29403;DHT22;16382;59.942;30.472;2023-02-28T00:36:02;2.40;99.90
29403;DHT22;16382;59.942;30.472;2023-02-28T00:38:35;2.40;99.90
29403;DHT22;16382;59.942;30.472;2023-02-28T00:41:03;2.40;99.90
29403;DHT22;16382;59.942;30.472;2023-02-28T00:43:32;2.40;99.90
29403;DHT22;16382;59.942;30.472;2023-02-28T00:46:00;2.50;99.90
29403;DHT22;16382;59.942;30.472;2023-02-28T00:48:28;2.40;99.90
29403;DHT22;16382;59.942;30.472;2023-02-28T00:50:55;2.50;99.90
29403;DHT22;16382;59.942;30.472;2023-02-28T00:53:24;2.50;99.90
29403;DHT22;16382;59.942;30.472;2023-02-28T00:55:51;2.50;99.90
29403;DHT22;16382;59.942;30.472;2023-02-28T00:58:18;2.50;99.90
29403;DHT22;16382;59.942;30.472;2023-02-28T01:00:47;2.40;99.90
29403;DHT22;16382;59.942;30.472;2023-02-28T01:03:15;2.50;99.90
29403;DHT22;16382;59.942;30.472;2023-02-28T01:05:44;2.40;99.90
29403;DHT22;16382;59.942;30.472;2023-02-28T01:08:12;2.50;99.90
29403;DHT22;16382;59.942;30.472;2023-02-28T01:10:41;2.40;99.90
29403;DHT22;16382;59.942;30.472;2023-02-28T01:13:09;2.40;99.90
29403;DHT22;16382;59.942;30.472;2023-02-28T01:15:37;2.40;99.90
29403;DHT22;16382;59.942;30.472;2023-02-28T01:18:05;2.40;99.90
29403;DHT22;16382;59.942;30.472;2023-02-28T01:20:32;2.50;99.90
29403;DHT22;16382;59.942;30.472;2023-02-28T01:23:01;2.50;99.90
29403;DHT22;16382;59.942;30.472;2023-02-28T01:25:28;2.50;99.90
29403;DHT22;16382;59.942;30.472;2023-02-28T01:27:57;2.40;99.90
29403;DHT22;16382;59.942;30.472;2023-02-28T01:30:26;2.50;99.90
29403;DHT22;16382;59.942;30.472;2023-02-28T01:32:54;2.50;99.90
29403;DHT22;16382;59.942;30.472;2023-02-28T01:35:21;2.40;99.90
29403;DHT22;16382;59.942;30.472;2023-02-28T01:37:48;2.40;99.90
29403;DHT22;16382;59.942;30.472;2023-02-28T01:40:16;2.40;99.90
29403;DHT22;16382;59.942;30.472;2023-02-28T01:42:43;2.40;99.90
29403;DHT22;16382;59.942;30.472;2023-02-28T01:45:22;2.40;99.90
29403;DHT22;16382;59.942;30.472;2023-02-28T01:47:54;2.50;99.90
29403;DHT22;16382;59.942;30.472;2023-02-28T01:50:25;2.50;99.90
29403;DHT22;16382;59.942;30.472;2023-02-28T01:52:57;2.40;99.90
29403;DHT22;16382;59.942;30.472;2023-02-28T01:55:28;2.50;99.90
29403;DHT22;16382;59.942;30.472;2023-02-28T01:58:00;2.40;99.90
29403;DHT22;16382;59.942;30.472;2023-02-28T02:00:31;2.40;99.90
29403;DHT22;16382;59.942;30.472;2023-02-28T02:03:01;2.40;99.90
29403;DHT22;16382;59.942;30.472;2023-02-28T02:05:37;2.40;99.90
29403;DHT22;16382;59.942;30.472;2023-02-28T02:08:09;2.40;99.90
29403;DHT22;16382;59.942;30.472;2023-02-28T02:10:41;2.40;99.90
29403;DHT22;16382;59.942;30.472;2023-02-28T02:13:29;2.40;99.90
29403;DHT22;16382;59.942;30.472;2023-02-28T02:16:15;2.30;99.90
29403;DHT22;16382;59.942;30.472;2023-02-28T02:18:53;2.30;99.90
29403;DHT22;16382;59.942;30.472;2023-02-28T02:21:43;2.30;99.90
29403;DHT22;16382;59.942;30.472;2023-02-28T02:24:35;2.30;99.90
29403;DHT22;16382;59.942;30.472;2023-02-28T02:36:31;2.30;99.90
29403;DHT22;16382;59.942;30.472;2023-02-28T02:39:04;2.30;99.90
29403;DHT22;16382;59.942;30.472;2023-02-28T02:41:36;2.30;99.90
29403;DHT22;16382;59.942;30.472;2023-02-28T02:44:10;2.30;99.90
29403;DHT22;16382;59.942;30.472;2023-02-28T02:46:42;2.30;99.90
29403;DHT22;16382;59.942;30.472;2023-02-28T02:49:15;2.30;99.90
29403;DHT22;16382;59.942;30.472;2023-02-28T02:51:47;2.20;99.90
29403;DHT22;16382;59.942;30.472;2023-02-28T02:54:17;2.20;99.90
29403;DHT22;16382;59.942;30.472;2023-02-28T02:56:50;2.20;99.90
29403;DHT22;16382;59.942;30.472;2023-02-28T02:59:20;2.30;99.90
29403;DHT22;16382;59.942;30.472;2023-02-28T03:01:53;2.30;99.90
29403;DHT22;16382;59.942;30.472;2023-02-28T03:04:24;2.30;99.90
29403;DHT22;16382;59.942;30.472;2023-02-28T03:06:56;2.30;99.90
29403;DHT22;16382;59.942;30.472;2023-02-28T03:09:25;2.20;99.90
29403;DHT22;16382;59.942;30.472;2023-02-28T03:11:55;2.30;99.90
29403;DHT22;16382;59.942;30.472;2023-02-28T03:14:30;2.20;99.90
29403;DHT22;16382;59.942;30.472;2023-02-28T03:17:25;2.20;99.90
29403;DHT22;16382;59.942;30.472;2023-02-28T03:20:11;2.20;99.90
29403;DHT22;16382;59.942;30.472;2023-02-28T03:22:52;2.20;99.90
29403;DHT22;16382;59.942;30.472;2023-02-28T03:25:35;2.20;99.90
29403;DHT22;16382;59.942;30.472;2023-02-28T03:28:12;2.20;99.90
29403;DHT22;16382;59.942;30.472;2023-02-28T03:30:47;2.10;99.90
29403;DHT22;16382;59.942;30.472;2023-02-28T03:33:22;2.20;99.90
29403;DHT22;16382;59.942;30.472;2023-02-28T03:35:54;2.20;99.90
29403;DHT22;16382;59.942;30.472;2023-02-28T03:38:29;2.20;99.90
29403;DHT22;16382;59.942;30.472;2023-02-28T03:41:05;2.20;99.90
29403;DHT22;16382;59.942;30.472;2023-02-28T03:43:42;2.20;99.90
29403;DHT22;16382;59.942;30.472;2023-02-28T03:46:12;2.20;99.90
29403;DHT22;16382;59.942;30.472;2023-02-28T03:48:45;2.20;99.90
29403;DHT22;16382;59.942;30.472;2023-02-28T03:51:18;2.30;99.90
29403;DHT22;16382;59.942;30.472;2023-02-28T03:53:50;2.20;99.90
29403;DHT22;16382;59.942;30.472;2023-02-28T03:56:22;2.20;99.90
29403;DHT22;16382;59.942;30.472;2023-02-28T03:58:57;2.20;99.90
29403;DHT22;16382;59.942;30.472;2023-02-28T04:01:30;2.20;99.90
29403;DHT22;16382;59.942;30.472;2023-02-28T04:04:00;2.20;99.90
29403;DHT22;16382;59.942;30.472;2023-02-28T04:06:31;2.30;99.90
29403;DHT22;16382;59.942;30.472;2023-02-28T04:09:01;2.20;99.90
29403;DHT22;16382;59.942;30.472;2023-02-28T04:11:32;2.20;99.90
29403;DHT22;16382;59.942;30.472;2023-02-28T04:14:01;2.20;99.90
29403;DHT22;16382;59.942;30.472;2023-02-28T04:16:29;2.20;99.90
29403;DHT22;16382;59.942;30.472;2023-02-28T04:18:57;2.30;99.90
29403;DHT22;16382;59.942;30.472;2023-02-28T04:21:28;2.30;99.90
29403;DHT22;16382;59.942;30.472;2023-02-28T04:23:56;2.30;99.90
29403;DHT22;16382;59.942;30.472;2023-02-28T04:26:29;2.30;99.90
29403;DHT22;16382;59.942;30.472;2023-02-28T04:28:57;2.20;99.90
29403;DHT22;16382;59.942;30.472;2023-02-28T04:31:25;2.20;99.90
29403;DHT22;16382;59.942;30.472;2023-02-28T04:33:52;2.20;99.90
29403;DHT22;16382;59.942;30.472;2023-02-28T04:36:19;2.20;99.90
29403;DHT22;16382;59.942;30.472;2023-02-28T04:38:49;2.20;99.90
29403;DHT22;16382;59.942;30.472;2023-02-28T04:41:17;2.20;99.90
29403;DHT22;16382;59.942;30.472;2023-02-28T04:43:46;2.10;99.90
29403;DHT22;16382;59.942;30.472;2023-02-28T04:46:13;2.20;99.90
29403;DHT22;16382;59.942;30.472;2023-02-28T04:48:41;2.10;99.90
29403;DHT22;16382;59.942;30.472;2023-02-28T04:51:11;2.10;99.90
29403;DHT22;16382;59.942;30.472;2023-02-28T04:53:41;2.10;99.90
29403;DHT22;16382;59.942;30.472;2023-02-28T04:56:13;2.00;99.90
29403;DHT22;16382;59.942;30.472;2023-02-28T04:58:42;2.10;99.90
29403;DHT22;16382;59.942;30.472;2023-02-28T05:01:22;2.00;99.90
29403;DHT22;16382;59.942;30.472;2023-02-28T05:03:52;2.00;99.90
29403;DHT22;16382;59.942;30.472;2023-02-28T05:06:21;2.00;99.90
29403;DHT22;16382;59.942;30.472;2023-02-28T05:08:51;2.00;99.90
29403;DHT22;16382;59.942;30.472;2023-02-28T05:11:20;2.00;99.90
29403;DHT22;16382;59.942;30.472;2023-02-28T05:13:49;2.00;99.90
29403;DHT22;16382;59.942;30.472;2023-02-28T05:16:19;2.00;99.90
29403;DHT22;16382;59.942;30.472;2023-02-28T05:18:47;2.00;99.90
29403;DHT22;16382;59.942;30.472;2023-02-28T05:21:27;2.00;99.90
29403;DHT22;16382;59.942;30.472;2023-02-28T05:23:57;2.10;99.90
29403;DHT22;16382;59.942;30.472;2023-02-28T05:26:26;2.10;99.90
29403;DHT22;16382;59.942;30.472;2023-02-28T05:28:54;2.20;99.90
29403;DHT22;16382;59.942;30.472;2023-02-28T05:31:23;2.20;99.90
29403;DHT22;16382;59.942;30.472;2023-02-28T05:33:51;2.30;99.90
29403;DHT22;16382;59.942;30.472;2023-02-28T05:36:18;2.30;99.90
29403;DHT22;16382;59.942;30.472;2023-02-28T05:38:47;2.40;99.90
29403;DHT22;16382;59.942;30.472;2023-02-28T05:41:29;2.40;99.90
29403;DHT22;16382;59.942;30.472;2023-02-28T05:44:06;2.50;99.90
29403;DHT22;16382;59.942;30.472;2023-02-28T05:46:38;2.50;99.90
29403;DHT22;16382;59.942;30.472;2023-02-28T05:49:06;2.50;99.90
29403;DHT22;16382;59.942;30.472;2023-02-28T05:51:33;2.60;99.90
29403;DHT22;16382;59.942;30.472;2023-02-28T05:54:06;2.70;99.90
29403;DHT22;16382;59.942;30.472;2023-02-28T05:56:34;2.60;99.90
29403;DHT22;16382;59.942;30.472;2023-02-28T05:59:04;2.70;99.90
29403;DHT22;16382;59.942;30.472;2023-02-28T06:01:33;2.70;99.90
29403;DHT22;16382;59.942;30.472;2023-02-28T06:04:05;2.70;99.90
29403;DHT22;16382;59.942;30.472;2023-02-28T06:06:34;2.50;99.90
29403;DHT22;16382;59.942;30.472;2023-02-28T06:09:03;2.40;99.90
29403;DHT22;16382;59.942;30.472;2023-02-28T06:11:32;2.20;99.90
29403;DHT22;16382;59.942;30.472;2023-02-28T06:14:00;2.20;99.90
29403;DHT22;16382;59.942;30.472;2023-02-28T06:16:29;2.20;99.90
29403;DHT22;16382;59.942;30.472;2023-02-28T06:19:00;2.20;99.90
29403;DHT22;16382;59.942;30.472;2023-02-28T06:21:31;2.30;99.90
29403;DHT22;16382;59.942;30.472;2023-02-28T06:23:58;2.30;99.90
29403;DHT22;16382;59.942;30.472;2023-02-28T06:26:26;2.40;99.90
29403;DHT22;16382;59.942;30.472;2023-02-28T06:28:54;2.40;99.90
29403;DHT22;16382;59.942;30.472;2023-02-28T06:31:22;2.50;99.90
29403;DHT22;16382;59.942;30.472;2023-02-28T06:33:51;2.50;99.90
29403;DHT22;16382;59.942;30.472;2023-02-28T06:36:21;2.50;99.90
29403;DHT22;16382;59.942;30.472;2023-02-28T06:38:48;2.60;99.90
29403;DHT22;16382;59.942;30.472;2023-02-28T06:41:21;2.60;99.90
29403;DHT22;16382;59.942;30.472;2023-02-28T06:43:49;2.60;99.90
29403;DHT22;16382;59.942;30.472;2023-02-28T06:46:17;2.60;99.90
29403;DHT22;16382;59.942;30.472;2023-02-28T06:48:45;2.60;99.90
29403;DHT22;16382;59.942;30.472;2023-02-28T06:51:14;2.70;99.90
29403;DHT22;16382;59.942;30.472;2023-02-28T06:53:45;2.70;99.90
29403;DHT22;16382;59.942;30.472;2023-02-28T06:56:14;2.70;99.90
29403;DHT22;16382;59.942;30.472;2023-02-28T06:58:46;2.70;99.90
29403;DHT22;16382;59.942;30.472;2023-02-28T07:01:14;2.70;99.90
29403;DHT22;16382;59.942;30.472;2023-02-28T07:03:41;2.70;99.90
29403;DHT22;16382;59.942;30.472;2023-02-28T07:06:09;2.70;99.90
29403;DHT22;16382;59.942;30.472;2023-02-28T07:08:37;2.70;99.90
29403;DHT22;16382;59.942;30.472;2023-02-28T07:11:07;2.70;99.90
29403;DHT22;16382;59.942;30.472;2023-02-28T07:13:35;2.70;99.90
29403;DHT22;16382;59.942;30.472;2023-02-28T07:16:04;2.60;99.90
29403;DHT22;16382;59.942;30.472;2023-02-28T07:18:33;2.50;99.90
29403;DHT22;16382;59.942;30.472;2023-02-28T07:21:02;2.50;99.90
29403;DHT22;16382;59.942;30.472;2023-02-28T07:23:29;2.50;99.90
29403;DHT22;16382;59.942;30.472;2023-02-28T07:25:57;2.50;99.90
29403;DHT22;16382;59.942;30.472;2023-02-28T07:28:27;2.50;99.90
29403;DHT22;16382;59.942;30.472;2023-02-28T07:30:54;2.50;99.90
29403;DHT22;16382;59.942;30.472;2023-02-28T07:33:22;2.50;99.90
29403;DHT22;16382;59.942;30.472;2023-02-28T07:35:50;2.50;99.90
29403;DHT22;16382;59.942;30.472;2023-02-28T07:38:18;2.60;99.90
29403;DHT22;16382;59.942;30.472;2023-02-28T07:40:45;2.60;99.90
29403;DHT22;16382;59.942;30.472;2023-02-28T07:43:16;2.60;99.90
29403;DHT22;16382;59.942;30.472;2023-02-28T07:45:44;2.70;99.90
29403;DHT22;16382;59.942;30.472;2023-02-28T07:48:12;2.70;99.90
29403;DHT22;16382;59.942;30.472;2023-02-28T07:50:39;2.70;99.90
29403;DHT22;16382;59.942;30.472;2023-02-28T07:53:07;2.80;99.90
29403;DHT22;16382;59.942;30.472;2023-02-28T07:55:34;2.80;99.90
29403;DHT22;16382;59.942;30.472;2023-02-28T07:58:01;2.80;99.90
29403;DHT22;16382;59.942;30.472;2023-02-28T08:00:29;2.80;99.90
29403;DHT22;16382;59.942;30.472;2023-02-28T08:02:59;2.80;99.90
29403;DHT22;16382;59.942;30.472;2023-02-28T08:05:26;2.90;99.90
29403;DHT22;16382;59.942;30.472;2023-02-28T08:07:53;2.80;99.90
29403;DHT22;16382;59.942;30.472;2023-02-28T08:10:21;2.90;99.90
29403;DHT22;16382;59.942;30.472;2023-02-28T08:12:49;2.90;99.90
29403;DHT22;16382;59.942;30.472;2023-02-28T08:15:17;2.90;99.90
29403;DHT22;16382;59.942;30.472;2023-02-28T08:17:44;2.90;99.90
29403;DHT22;16382;59.942;30.472;2023-02-28T08:20:13;2.80;99.90
29403;DHT22;16382;59.942;30.472;2023-02-28T08:22:41;2.70;99.90
29403;DHT22;16382;59.942;30.472;2023-02-28T08:25:09;2.70;98.60
29403;DHT22;16382;59.942;30.472;2023-02-28T08:27:36;2.70;98.30
29403;DHT22;16382;59.942;30.472;2023-02-28T08:30:05;2.70;96.20
29403;DHT22;16382;59.942;30.472;2023-02-28T08:32:33;2.80;95.80
29403;DHT22;16382;59.942;30.472;2023-02-28T08:35:01;3.00;95.20
29403;DHT22;16382;59.942;30.472;2023-02-28T08:37:31;3.10;94.60
29403;DHT22;16382;59.942;30.472;2023-02-28T08:39:58;3.20;94.30
29403;DHT22;16382;59.942;30.472;2023-02-28T08:42:26;3.30;94.40
29403;DHT22;16382;59.942;30.472;2023-02-28T08:44:53;3.40;93.20
29403;DHT22;16382;59.942;30.472;2023-02-28T08:47:21;3.40;91.40
29403;DHT22;16382;59.942;30.472;2023-02-28T08:49:48;3.50;90.90
29403;DHT22;16382;59.942;30.472;2023-02-28T08:52:15;3.60;90.50
29403;DHT22;16382;59.942;30.472;2023-02-28T08:54:44;3.70;90.80
29403;DHT22;16382;59.942;30.472;2023-02-28T08:57:12;3.80;90.30
29403;DHT22;16382;59.942;30.472;2023-02-28T08:59:39;3.90;89.00
29403;DHT22;16382;59.942;30.472;2023-02-28T09:02:08;4.40;90.00
29403;DHT22;16382;59.942;30.472;2023-02-28T09:04:37;5.30;86.70
29403;DHT22;16382;59.942;30.472;2023-02-28T09:07:04;5.40;81.30
29403;DHT22;16382;59.942;30.472;2023-02-28T09:09:32;5.30;82.20
29403;DHT22;16382;59.942;30.472;2023-02-28T09:12:01;6.90;84.50
29403;DHT22;16382;59.942;30.472;2023-02-28T09:14:29;9.10;78.10
29403;DHT22;16382;59.942;30.472;2023-02-28T09:16:56;11.00;68.30
29403;DHT22;16382;59.942;30.472;2023-02-28T09:19:25;12.40;61.80
29403;DHT22;16382;59.942;30.472;2023-02-28T09:21:52;13.60;57.50
29403;DHT22;16382;59.942;30.472;2023-02-28T09:24:19;14.60;53.20
29403;DHT22;16382;59.942;30.472;2023-02-28T09:26:47;15.30;52.00
29403;DHT22;16382;59.942;30.472;2023-02-28T09:29:16;15.70;50.30
29403;DHT22;16382;59.942;30.472;2023-02-28T09:31:43;16.00;48.90
29403;DHT22;16382;59.942;30.472;2023-02-28T09:34:11;16.50;47.90
29403;DHT22;16382;59.942;30.472;2023-02-28T09:36:43;16.80;46.60
29403;DHT22;16382;59.942;30.472;2023-02-28T09:39:10;16.90;47.10
29403;DHT22;16382;59.942;30.472;2023-02-28T09:41:42;17.20;45.90
29403;DHT22;16382;59.942;30.472;2023-02-28T09:44:24;17.40;44.70
29403;DHT22;16382;59.942;30.472;2023-02-28T09:46:58;16.90;44.60
29403;DHT22;16382;59.942;30.472;2023-02-28T09:49:34;16.70;45.90
29403;DHT22;16382;59.942;30.472;2023-02-28T09:52:07;16.30;44.80
29403;DHT22;16382;59.942;30.472;2023-02-28T09:54:37;15.30;46.70
29403;DHT22;16382;59.942;30.472;2023-02-28T09:57:13;15.10;47.10
29403;DHT22;16382;59.942;30.472;2023-02-28T10:02:54;13.20;48.80
29403;DHT22;16382;59.942;30.472;2023-02-28T10:05:34;11.90;50.80
29403;DHT22;16382;59.942;30.472;2023-02-28T10:08:11;10.70;52.10
29403;DHT22;16382;59.942;30.472;2023-02-28T10:10:43;9.60;54.00
29403;DHT22;16382;59.942;30.472;2023-02-28T10:13:16;8.70;55.30
29403;DHT22;16382;59.942;30.472;2023-02-28T10:15:53;8.00;56.50
29403;DHT22;16382;59.942;30.472;2023-02-28T10:18:26;7.40;58.60
29403;DHT22;16382;59.942;30.472;2023-02-28T10:20:56;7.00;59.60
29403;DHT22;16382;59.942;30.472;2023-02-28T10:23:28;6.70;59.90
29403;DHT22;16382;59.942;30.472;2023-02-28T10:26:01;6.40;60.80
29403;DHT22;16382;59.942;30.472;2023-02-28T10:28:32;6.30;60.70
29403;DHT22;16382;59.942;30.472;2023-02-28T10:31:01;6.30;60.30
29403;DHT22;16382;59.942;30.472;2023-02-28T10:33:31;6.20;59.60
29403;DHT22;16382;59.942;30.472;2023-02-28T10:36:02;6.00;60.00
29403;DHT22;16382;59.942;30.472;2023-02-28T10:38:35;6.00;61.40
29403;DHT22;16382;59.942;30.472;2023-02-28T10:41:05;5.90;62.10
29403;DHT22;16382;59.942;30.472;2023-02-28T10:43:35;5.80;63.00
29403;DHT22;16382;59.942;30.472;2023-02-28T10:46:12;5.70;64.70
29403;DHT22;16382;59.942;30.472;2023-02-28T10:49:01;5.80;65.80
29403;DHT22;16382;59.942;30.472;2023-02-28T10:51:38;6.00;66.50
29403;DHT22;16382;59.942;30.472;2023-02-28T10:54:15;6.60;64.70
29403;DHT22;16382;59.942;30.472;2023-02-28T10:56:43;7.60;62.90
29403;DHT22;16382;59.942;30.472;2023-02-28T10:59:28;9.10;60.50
29403;DHT22;16382;59.942;30.472;2023-02-28T11:02:00;10.90;56.20
29403;DHT22;16382;59.942;30.472;2023-02-28T11:04:35;11.40;54.00
29403;DHT22;16382;59.942;30.472;2023-02-28T11:07:17;12.10;52.60
29403;DHT22;16382;59.942;30.472;2023-02-28T11:09:48;13.00;48.40
29403;DHT22;16382;59.942;30.472;2023-02-28T11:12:22;14.30;46.90
29403;DHT22;16382;59.942;30.472;2023-02-28T11:14:52;15.90;44.80
29403;DHT22;16382;59.942;30.472;2023-02-28T11:17:25;16.80;43.30
29403;DHT22;16382;59.942;30.472;2023-02-28T11:19:56;17.00;41.80
29403;DHT22;16382;59.942;30.472;2023-02-28T11:22:26;16.30;39.70
29403;DHT22;16382;59.942;30.472;2023-02-28T11:24:57;15.60;41.00
29403;DHT22;16382;59.942;30.472;2023-02-28T11:27:45;14.80;40.70
29403;DHT22;16382;59.942;30.472;2023-02-28T11:30:33;14.70;41.10
29403;DHT22;16382;59.942;30.472;2023-02-28T11:33:22;15.10;41.10
29403;DHT22;16382;59.942;30.472;2023-02-28T11:35:51;15.60;39.70
29403;DHT22;16382;59.942;30.472;2023-02-28T11:38:20;15.70;39.40
29403;DHT22;16382;59.942;30.472;2023-02-28T11:40:54;16.10;37.90
29403;DHT22;16382;59.942;30.472;2023-02-28T11:43:39;16.40;36.20
29403;DHT22;16382;59.942;30.472;2023-02-28T11:46:24;16.20;35.50
29403;DHT22;16382;59.942;30.472;2023-02-28T11:49:05;14.80;36.30
29403;DHT22;16382;59.942;30.472;2023-02-28T11:51:47;13.60;37.90
29403;DHT22;16382;59.942;30.472;2023-02-28T11:54:28;13.80;38.40
29403;DHT22;16382;59.942;30.472;2023-02-28T11:57:25;14.80;37.10
29403;DHT22;16382;59.942;30.472;2023-02-28T12:00:06;16.30;36.50
29403;DHT22;16382;59.942;30.472;2023-02-28T12:02:50;17.40;35.30
29403;DHT22;16382;59.942;30.472;2023-02-28T12:05:30;17.10;34.30
29403;DHT22;16382;59.942;30.472;2023-02-28T12:08:09;16.30;35.00
29403;DHT22;16382;59.942;30.472;2023-02-28T12:10:57;16.20;34.30
29403;DHT22;16382;59.942;30.472;2023-02-28T12:13:40;16.30;33.30
29403;DHT22;16382;59.942;30.472;2023-02-28T12:16:29;16.60;33.40
29403;DHT22;16382;59.942;30.472;2023-02-28T12:19:17;16.60;33.40
29403;DHT22;16382;59.942;30.472;2023-02-28T12:22:22;15.50;34.90
29403;DHT22;16382;59.942;30.472;2023-02-28T12:27:51;13.90;35.60
29403;DHT22;16382;59.942;30.472;2023-02-28T12:30:23;14.10;36.30
29403;DHT22;16382;59.942;30.472;2023-02-28T12:32:55;15.00;36.50
29403;DHT22;16382;59.942;30.472;2023-02-28T12:35:28;15.90;35.30
29403;DHT22;16382;59.942;30.472;2023-02-28T12:38:04;16.70;34.30
29403;DHT22;16382;59.942;30.472;2023-02-28T12:40:42;17.10;34.30
29403;DHT22;16382;59.942;30.472;2023-02-28T12:43:27;16.90;34.70
29403;DHT22;16382;59.942;30.472;2023-02-28T12:46:02;16.60;34.30
29403;DHT22;16382;59.942;30.472;2023-02-28T12:48:38;16.60;35.10
29403;DHT22;16382;59.942;30.472;2023-02-28T12:51:08;15.90;34.70
29403;DHT22;16382;59.942;30.472;2023-02-28T12:53:56;15.50;35.40
29403;DHT22;16382;59.942;30.472;2023-02-28T12:56:46;15.10;35.80
29403;DHT22;16382;59.942;30.472;2023-02-28T12:59:18;14.50;36.40
29403;DHT22;16382;59.942;30.472;2023-02-28T13:02:01;13.70;37.30
29403;DHT22;16382;59.942;30.472;2023-02-28T13:04:47;12.30;38.70
29403;DHT22;16382;59.942;30.472;2023-02-28T13:10:47;10.10;41.20
29403;DHT22;16382;59.942;30.472;2023-02-28T13:13:24;8.90;42.30
29403;DHT22;16382;59.942;30.472;2023-02-28T13:16:08;7.90;43.30
29403;DHT22;16382;59.942;30.472;2023-02-28T13:18:38;7.90;44.90
29403;DHT22;16382;59.942;30.472;2023-02-28T13:21:07;8.40;45.40
29403;DHT22;16382;59.942;30.472;2023-02-28T13:29:51;7.70;43.70
29403;DHT22;16382;59.942;30.472;2023-02-28T13:32:33;7.40;44.10
29403;DHT22;16382;59.942;30.472;2023-02-28T13:35:38;7.00;44.80
29403;DHT22;16382;59.942;30.472;2023-02-28T13:38:32;7.50;45.60
29403;DHT22;16382;59.942;30.472;2023-02-28T13:44:19;10.60;42.20
29403;DHT22;16382;59.942;30.472;2023-02-28T13:47:21;11.30;40.90
29403;DHT22;16382;59.942;30.472;2023-02-28T13:49:52;12.30;39.90
29403;DHT22;16382;59.942;30.472;2023-02-28T13:52:22;12.80;38.80
29403;DHT22;16382;59.942;30.472;2023-02-28T13:54:58;12.90;38.90
29403;DHT22;16382;59.942;30.472;2023-02-28T13:58:03;12.40;39.00
29403;DHT22;16382;59.942;30.472;2023-02-28T14:01:05;12.40;39.20
29403;DHT22;16382;59.942;30.472;2023-02-28T14:04:11;12.10;38.70
29403;DHT22;16382;59.942;30.472;2023-02-28T14:06:47;10.60;39.80
29403;DHT22;16382;59.942;30.472;2023-02-28T14:09:21;9.10;41.50
29403;DHT22;16382;59.942;30.472;2023-02-28T14:11:51;7.70;42.50
29403;DHT22;16382;59.942;30.472;2023-02-28T14:14:54;6.60;44.00
29403;DHT22;16382;59.942;30.472;2023-02-28T14:17:24;5.80;45.70
29403;DHT22;16382;59.942;30.472;2023-02-28T14:19:53;5.20;46.90
29403;DHT22;16382;59.942;30.472;2023-02-28T14:22:49;4.80;47.80
29403;DHT22;16382;59.942;30.472;2023-02-28T14:25:30;4.40;47.90
29403;DHT22;16382;59.942;30.472;2023-02-28T14:28:08;4.20;49.00
29403;DHT22;16382;59.942;30.472;2023-02-28T14:30:51;4.00;50.00
29403;DHT22;16382;59.942;30.472;2023-02-28T14:33:27;3.80;49.50
29403;DHT22;16382;59.942;30.472;2023-02-28T14:36:12;3.60;49.80
29403;DHT22;16382;59.942;30.472;2023-02-28T14:38:46;3.40;50.00
29403;DHT22;16382;59.942;30.472;2023-02-28T14:41:23;3.30;50.20
29403;DHT22;16382;59.942;30.472;2023-02-28T14:43:58;3.10;51.10
29403;DHT22;16382;59.942;30.472;2023-02-28T14:46:30;3.00;51.70
29403;DHT22;16382;59.942;30.472;2023-02-28T14:49:04;3.00;52.00
29403;DHT22;16382;59.942;30.472;2023-02-28T14:51:32;2.80;52.30
29403;DHT22;16382;59.942;30.472;2023-02-28T14:54:01;2.70;52.70
29403;DHT22;16382;59.942;30.472;2023-02-28T14:56:34;2.60;52.80
29403;DHT22;16382;59.942;30.472;2023-02-28T14:59:03;2.50;53.40
29403;DHT22;16382;59.942;30.472;2023-02-28T15:01:36;2.40;53.50
29403;DHT22;16382;59.942;30.472;2023-02-28T15:04:06;2.30;53.80
29403;DHT22;16382;59.942;30.472;2023-02-28T15:06:38;2.20;54.10
29403;DHT22;16382;59.942;30.472;2023-02-28T15:09:14;2.10;54.10
29403;DHT22;16382;59.942;30.472;2023-02-28T15:11:46;2.00;54.40
29403;DHT22;16382;59.942;30.472;2023-02-28T15:14:16;1.90;54.80
29403;DHT22;16382;59.942;30.472;2023-02-28T15:16:49;1.80;55.20
29403;DHT22;16382;59.942;30.472;2023-02-28T15:19:23;1.70;55.40
29403;DHT22;16382;59.942;30.472;2023-02-28T15:21:54;1.60;56.30
29403;DHT22;16382;59.942;30.472;2023-02-28T15:24:31;1.60;56.40
29403;DHT22;16382;59.942;30.472;2023-02-28T15:27:05;1.50;56.60
29403;DHT22;16382;59.942;30.472;2023-02-28T15:29:42;1.50;56.20
29403;DHT22;16382;59.942;30.472;2023-02-28T15:32:27;1.40;56.50
29403;DHT22;16382;59.942;30.472;2023-02-28T15:34:58;1.40;57.20
29403;DHT22;16382;59.942;30.472;2023-02-28T15:37:38;1.30;57.30
29403;DHT22;16382;59.942;30.472;2023-02-28T15:40:13;1.30;57.30
29403;DHT22;16382;59.942;30.472;2023-02-28T15:42:42;1.20;58.00
29403;DHT22;16382;59.942;30.472;2023-02-28T15:45:32;1.20;58.10
29403;DHT22;16382;59.942;30.472;2023-02-28T15:48:04;1.10;58.30
29403;DHT22;16382;59.942;30.472;2023-02-28T15:50:33;1.10;58.80
29403;DHT22;16382;59.942;30.472;2023-02-28T15:53:02;1.00;59.40
29403;DHT22;16382;59.942;30.472;2023-02-28T15:55:30;1.00;59.10
29403;DHT22;16382;59.942;30.472;2023-02-28T15:58:00;1.00;59.20
29403;DHT22;16382;59.942;30.472;2023-02-28T16:00:30;1.00;59.30
29403;DHT22;16382;59.942;30.472;2023-02-28T16:02:58;1.00;59.30
29403;DHT22;16382;59.942;30.472;2023-02-28T16:05:27;0.90;59.60
29403;DHT22;16382;59.942;30.472;2023-02-28T16:08:00;0.90;59.90
29403;DHT22;16382;59.942;30.472;2023-02-28T16:10:29;0.90;60.00
29403;DHT22;16382;59.942;30.472;2023-02-28T16:12:57;0.80;60.30
29403;DHT22;16382;59.942;30.472;2023-02-28T16:15:28;0.90;61.40
29403;DHT22;16382;59.942;30.472;2023-02-28T16:17:57;0.80;61.60
29403;DHT22;16382;59.942;30.472;2023-02-28T16:20:26;0.80;61.70
29403;DHT22;16382;59.942;30.472;2023-02-28T16:23:00;0.80;62.00
29403;DHT22;16382;59.942;30.472;2023-02-28T16:25:35;0.80;62.60
29403;DHT22;16382;59.942;30.472;2023-02-28T16:28:28;0.80;62.60
29403;DHT22;16382;59.942;30.472;2023-02-28T16:30:59;0.80;63.00